sensor_id;sensor_type;location;lat;lon;timestamp;pressure;altitude;pressure_sealevel;temperature;humidity
3796;BME280;1913;50.660;7.834;2023-04-21T00:00:45;96894.66;;;6.74;100.00
3796;BME280;1913;50.660;7.834;2023-04-21T00:03:11;96890.69;;;6.78;100.00
3796;BME280;1913;50.660;7.834;2023-04-21T00:05:36;96887.81;;;6.72;100.00
3796;BME280;1913;50.660;7.834;2023-04-21T00:08:09;96888.34;;;6.68;100.00
3796;BME280;1913;50.660;7.834;2023-04-21T00:10:34;96889.72;;;6.64;100.00
3796;BME280;1913;50.660;7.834;2023-04-21T00:13:00;96898.13;;;6.81;100.00
3796;BME280;1913;50.660;7.834;2023-04-21T00:15:25;96902.56;;;6.80;100.00
3796;BME280;1913;50.660;7.834;2023-04-21T00:17:51;96901.69;;;6.73;100.00
3796;BME280;1913;50.660;7.834;2023-04-21T00:20:16;96894.09;;;6.78;100.00
3796;BME280;1913;50.660;7.834;2023-04-21T00:22:42;96893.47;;;6.76;100.00
3796;BME280;1913;50.660;7.834;2023-04-21T00:25:08;96891.78;;;6.90;100.00
3796;BME280;1913;50.660;7.834;2023-04-21T00:27:34;96896.13;;;6.83;100.00
3796;BME280;1913;50.660;7.834;2023-04-21T00:29:59;96885.31;;;6.86;100.00
3796;BME280;1913;50.660;7.834;2023-04-21T00:32:25;96895.91;;;6.78;100.00
3796;BME280;1913;50.660;7.834;2023-04-21T00:34:50;96891.03;;;6.75;100.00
3796;BME280;1913;50.660;7.834;2023-04-21T00:37:15;96891.59;;;6.70;100.00
3796;BME280;1913;50.660;7.834;2023-04-21T00:39:41;96881.31;;;6.68;100.00
3796;BME280;1913;50.660;7.834;2023-04-21T00:42:06;96885.69;;;6.83;100.00
3796;BME280;1913;50.660;7.834;2023-04-21T00:44:32;96875.19;;;6.76;100.00
3796;BME280;1913;50.660;7.834;2023-04-21T00:46:57;115491.06;;;6.74;100.00
3796;BME280;1913;50.660;7.834;2023-04-21T00:49:23;96882.97;;;6.69;100.00
3796;BME280;1913;50.660;7.834;2023-04-21T00:51:51;96872.97;;;6.73;100.00
3796;BME280;1913;50.660;7.834;2023-04-21T00:54:17;96874.50;;;6.67;100.00
3796;BME280;1913;50.660;7.834;2023-04-21T00:56:43;96876.97;;;6.76;100.00
3796;BME280;1913;50.660;7.834;2023-04-21T00:59:08;96872.53;;;6.69;100.00
3796;BME280;1913;50.660;7.834;2023-04-21T01:01:34;96872.75;;;6.75;100.00
3796;BME280;1913;50.660;7.834;2023-04-21T01:04:02;96876.06;;;6.62;100.00
3796;BME280;1913;50.660;7.834;2023-04-21T01:06:29;96867.72;;;6.52;100.00
3796;BME280;1913;50.660;7.834;2023-04-21T01:08:56;96869.88;;;6.48;100.00
3796;BME280;1913;50.660;7.834;2023-04-21T01:11:22;96868.25;;;6.47;100.00
3796;BME280;1913;50.660;7.834;2023-04-21T01:13:51;96867.28;;;6.48;100.00
3796;BME280;1913;50.660;7.834;2023-04-21T01:16:17;96869.44;;;6.44;100.00
3796;BME280;1913;50.660;7.834;2023-04-21T01:18:44;96865.59;;;6.40;100.00
3796;BME280;1913;50.660;7.834;2023-04-21T01:21:10;96869.00;;;6.41;100.00
3796;BME280;1913;50.660;7.834;2023-04-21T01:23:35;96871.84;;;6.46;100.00
3796;BME280;1913;50.660;7.834;2023-04-21T01:26:01;96872.22;;;6.43;100.00
3796;BME280;1913;50.660;7.834;2023-04-21T01:28:27;96875.91;;;6.48;100.00
3796;BME280;1913;50.660;7.834;2023-04-21T01:30:52;96878.25;;;6.43;100.00
3796;BME280;1913;50.660;7.834;2023-04-21T01:33:19;96876.06;;;6.47;100.00
3796;BME280;1913;50.660;7.834;2023-04-21T01:35:44;96874.47;;;6.46;100.00
3796;BME280;1913;50.660;7.834;2023-04-21T01:38:10;96871.56;;;6.56;100.00
3796;BME280;1913;50.660;7.834;2023-04-21T01:40:36;96879.19;;;6.57;100.00
3796;BME280;1913;50.660;7.834;2023-04-21T01:43:02;96883.19;;;6.53;100.00
3796;BME280;1913;50.660;7.834;2023-04-21T01:45:29;96893.47;;;6.55;100.00
3796;BME280;1913;50.660;7.834;2023-04-21T01:47:54;96896.38;;;6.66;100.00
3796;BME280;1913;50.660;7.834;2023-04-21T01:50:20;96899.06;;;6.73;100.00
3796;BME280;1913;50.660;7.834;2023-04-21T01:52:45;96892.22;;;6.72;100.00
3796;BME280;1913;50.660;7.834;2023-04-21T01:55:11;96891.25;;;6.73;100.00
3796;BME280;1913;50.660;7.834;2023-04-21T01:57:36;96891.91;;;6.82;100.00
3796;BME280;1913;50.660;7.834;2023-04-21T02:00:03;96878.56;;;6.91;100.00
3796;BME280;1913;50.660;7.834;2023-04-21T02:02:28;96887.25;;;6.77;100.00
3796;BME280;1913;50.660;7.834;2023-04-21T02:04:54;96888.13;;;6.84;100.00
3796;BME280;1913;50.660;7.834;2023-04-21T02:07:19;96883.06;;;6.83;100.00
3796;BME280;1913;50.660;7.834;2023-04-21T02:09:45;96884.94;;;6.89;100.00
3796;BME280;1913;50.660;7.834;2023-04-21T02:12:10;96881.66;;;6.80;100.00
3796;BME280;1913;50.660;7.834;2023-04-21T02:14:36;96873.91;;;6.87;100.00
3796;BME280;1913;50.660;7.834;2023-04-21T02:17:02;96881.47;;;6.82;100.00
3796;BME280;1913;50.660;7.834;2023-04-21T02:19:28;96874.81;;;6.79;100.00
3796;BME280;1913;50.660;7.834;2023-04-21T02:21:54;96878.94;;;6.88;100.00
3796;BME280;1913;50.660;7.834;2023-04-21T02:24:20;96886.31;;;6.85;100.00
3796;BME280;1913;50.660;7.834;2023-04-21T02:26:45;96891.56;;;6.85;100.00
3796;BME280;1913;50.660;7.834;2023-04-21T02:29:11;96891.19;;;6.88;100.00
3796;BME280;1913;50.660;7.834;2023-04-21T02:31:36;96882.97;;;6.91;100.00
3796;BME280;1913;50.660;7.834;2023-04-21T02:34:01;96888.63;;;6.94;100.00
3796;BME280;1913;50.660;7.834;2023-04-21T02:36:27;96885.09;;;7.02;100.00
3796;BME280;1913;50.660;7.834;2023-04-21T02:38:52;96879.88;;;7.02;100.00
3796;BME280;1913;50.660;7.834;2023-04-21T02:41:18;96893.72;;;7.03;100.00
3796;BME280;1913;50.660;7.834;2023-04-21T02:43:43;96893.00;;;7.09;100.00
3796;BME280;1913;50.660;7.834;2023-04-21T02:46:09;96886.38;;;7.13;100.00
3796;BME280;1913;50.660;7.834;2023-04-21T02:48:35;96892.13;;;7.02;100.00
3796;BME280;1913;50.660;7.834;2023-04-21T02:51:01;96899.69;;;6.96;100.00
3796;BME280;1913;50.660;7.834;2023-04-21T02:53:26;96891.31;;;7.01;100.00
3796;BME280;1913;50.660;7.834;2023-04-21T02:55:52;96892.66;;;6.97;100.00
3796;BME280;1913;50.660;7.834;2023-04-21T02:58:17;96890.03;;;6.97;100.00
3796;BME280;1913;50.660;7.834;2023-04-21T03:00:43;96888.06;;;6.99;100.00
3796;BME280;1913;50.660;7.834;2023-04-21T03:03:08;96884.59;;;6.92;100.00
3796;BME280;1913;50.660;7.834;2023-04-21T03:05:34;96876.50;;;6.87;100.00
3796;BME280;1913;50.660;7.834;2023-04-21T03:07:59;96865.88;;;6.88;100.00
3796;BME280;1913;50.660;7.834;2023-04-21T03:10:25;96879.56;;;6.90;100.00
3796;BME280;1913;50.660;7.834;2023-04-21T03:12:50;96878.34;;;6.93;100.00
3796;BME280;1913;50.660;7.834;2023-04-21T03:15:19;96878.78;;;6.96;100.00
3796;BME280;1913;50.660;7.834;2023-04-21T03:17:45;96881.91;;;6.85;100.00
3796;BME280;1913;50.660;7.834;2023-04-21T03:20:10;96882.84;;;6.78;100.00
3796;BME280;1913;50.660;7.834;2023-04-21T03:22:37;96877.84;;;6.61;100.00
3796;BME280;1913;50.660;7.834;2023-04-21T03:25:03;96893.91;;;6.80;100.00
3796;BME280;1913;50.660;7.834;2023-04-21T03:27:30;96880.28;;;6.63;100.00
3796;BME280;1913;50.660;7.834;2023-04-21T03:29:55;96882.81;;;6.56;100.00
3796;BME280;1913;50.660;7.834;2023-04-21T03:32:20;96879.84;;;6.59;100.00
3796;BME280;1913;50.660;7.834;2023-04-21T03:34:46;96880.75;;;6.52;100.00
3796;BME280;1913;50.660;7.834;2023-04-21T03:37:11;96881.56;;;6.52;100.00
3796;BME280;1913;50.660;7.834;2023-04-21T03:39:37;96885.09;;;6.44;100.00
3796;BME280;1913;50.660;7.834;2023-04-21T03:42:03;96881.84;;;6.42;100.00
3796;BME280;1913;50.660;7.834;2023-04-21T03:44:29;96881.69;;;6.44;100.00
3796;BME280;1913;50.660;7.834;2023-04-21T03:46:54;96878.06;;;6.45;100.00
3796;BME280;1913;50.660;7.834;2023-04-21T03:49:20;96881.94;;;6.49;100.00
3796;BME280;1913;50.660;7.834;2023-04-21T03:51:45;96877.28;;;6.44;100.00
3796;BME280;1913;50.660;7.834;2023-04-21T03:54:11;96879.97;;;6.36;100.00
3796;BME280;1913;50.660;7.834;2023-04-21T03:56:37;96870.53;;;6.35;100.00
3796;BME280;1913;50.660;7.834;2023-04-21T03:59:02;96875.91;;;6.48;100.00
3796;BME280;1913;50.660;7.834;2023-04-21T04:01:28;96872.78;;;6.38;100.00
3796;BME280;1913;50.660;7.834;2023-04-21T04:03:53;96874.59;;;6.38;100.00
3796;BME280;1913;50.660;7.834;2023-04-21T04:06:19;96883.28;;;6.45;100.00
3796;BME280;1913;50.660;7.834;2023-04-21T04:08:44;96881.59;;;6.37;100.00
3796;BME280;1913;50.660;7.834;2023-04-21T04:11:10;96874.75;;;6.36;100.00
3796;BME280;1913;50.660;7.834;2023-04-21T04:13:36;96883.22;;;6.38;100.00
3796;BME280;1913;50.660;7.834;2023-04-21T04:16:01;96871.78;;;6.39;100.00
3796;BME280;1913;50.660;7.834;2023-04-21T04:18:26;96874.59;;;6.38;100.00
3796;BME280;1913;50.660;7.834;2023-04-21T04:20:52;96879.25;;;6.42;100.00
3796;BME280;1913;50.660;7.834;2023-04-21T04:23:17;96869.81;;;6.41;100.00
3796;BME280;1913;50.660;7.834;2023-04-21T04:25:43;96881.13;;;6.48;100.00
3796;BME280;1913;50.660;7.834;2023-04-21T04:28:08;96871.59;;;6.41;100.00
3796;BME280;1913;50.660;7.834;2023-04-21T04:30:34;96868.69;;;6.51;100.00
3796;BME280;1913;50.660;7.834;2023-04-21T04:33:00;96869.88;;;6.48;100.00
3796;BME280;1913;50.660;7.834;2023-04-21T04:35:26;96874.28;;;6.47;100.00
3796;BME280;1913;50.660;7.834;2023-04-21T04:37:51;96877.28;;;6.44;100.00
3796;BME280;1913;50.660;7.834;2023-04-21T04:40:18;96867.81;;;6.43;100.00
3796;BME280;1913;50.660;7.834;2023-04-21T04:42:44;96872.50;;;6.48;100.00
3796;BME280;1913;50.660;7.834;2023-04-21T04:45:13;96874.09;;;6.49;100.00
3796;BME280;1913;50.660;7.834;2023-04-21T04:47:41;96873.59;;;6.39;100.00
3796;BME280;1913;50.660;7.834;2023-04-21T04:50:06;96871.06;;;6.45;100.00
3796;BME280;1913;50.660;7.834;2023-04-21T04:52:32;96876.50;;;6.51;100.00
3796;BME280;1913;50.660;7.834;2023-04-21T04:55:02;96878.84;;;6.60;100.00
3796;BME280;1913;50.660;7.834;2023-04-21T04:57:29;96876.59;;;6.57;100.00
3796;BME280;1913;50.660;7.834;2023-04-21T04:59:55;96876.28;;;6.45;100.00
3796;BME280;1913;50.660;7.834;2023-04-21T05:02:21;96883.44;;;6.58;100.00
3796;BME280;1913;50.660;7.834;2023-04-21T05:04:49;96886.94;;;6.65;100.00
3796;BME280;1913;50.660;7.834;2023-04-21T05:07:14;96887.91;;;6.64;100.00
3796;BME280;1913;50.660;7.834;2023-04-21T05:09:40;96889.59;;;6.72;100.00
3796;BME280;1913;50.660;7.834;2023-04-21T05:12:06;96887.44;;;6.76;100.00
3796;BME280;1913;50.660;7.834;2023-04-21T05:14:32;96892.19;;;6.87;100.00
3796;BME280;1913;50.660;7.834;2023-04-21T05:16:58;96889.38;;;6.88;100.00
3796;BME280;1913;50.660;7.834;2023-04-21T05:19:23;96885.22;;;6.94;100.00
3796;BME280;1913;50.660;7.834;2023-04-21T05:21:48;96892.91;;;6.81;100.00
3796;BME280;1913;50.660;7.834;2023-04-21T05:24:14;96883.16;;;6.89;100.00
3796;BME280;1913;50.660;7.834;2023-04-21T05:26:39;96882.22;;;6.97;100.00
3796;BME280;1913;50.660;7.834;2023-04-21T05:29:05;96889.88;;;6.99;100.00
3796;BME280;1913;50.660;7.834;2023-04-21T05:31:30;96893.53;;;7.04;100.00
3796;BME280;1913;50.660;7.834;2023-04-21T05:33:57;96891.78;;;7.11;100.00
3796;BME280;1913;50.660;7.834;2023-04-21T05:36:22;96885.22;;;7.15;100.00
3796;BME280;1913;50.660;7.834;2023-04-21T05:38:49;96881.59;;;7.16;100.00
3796;BME280;1913;50.660;7.834;2023-04-21T05:41:14;96885.81;;;7.17;100.00
3796;BME280;1913;50.660;7.834;2023-04-21T05:43:40;96884.16;;;7.10;100.00
3796;BME280;1913;50.660;7.834;2023-04-21T05:46:09;96879.66;;;7.25;100.00
3796;BME280;1913;50.660;7.834;2023-04-21T05:48:38;96882.09;;;7.27;100.00
3796;BME280;1913;50.660;7.834;2023-04-21T05:51:12;96881.44;;;7.25;100.00
3796;BME280;1913;50.660;7.834;2023-04-21T05:53:38;96889.19;;;7.33;100.00
3796;BME280;1913;50.660;7.834;2023-04-21T05:56:04;96891.09;;;7.24;100.00
3796;BME280;1913;50.660;7.834;2023-04-21T05:58:30;96892.13;;;7.51;100.00
3796;BME280;1913;50.660;7.834;2023-04-21T06:00:56;96897.75;;;7.48;100.00
3796;BME280;1913;50.660;7.834;2023-04-21T06:03:21;96897.84;;;7.61;100.00
3796;BME280;1913;50.660;7.834;2023-04-21T06:05:53;96887.97;;;7.63;100.00
3796;BME280;1913;50.660;7.834;2023-04-21T06:08:18;96882.00;;;7.70;100.00
3796;BME280;1913;50.660;7.834;2023-04-21T06:10:44;96881.00;;;7.71;100.00
3796;BME280;1913;50.660;7.834;2023-04-21T06:13:09;96881.69;;;7.86;100.00
3796;BME280;1913;50.660;7.834;2023-04-21T06:15:35;96879.50;;;7.89;100.00
3796;BME280;1913;50.660;7.834;2023-04-21T06:18:00;96882.31;;;7.88;100.00
3796;BME280;1913;50.660;7.834;2023-04-21T06:20:25;96876.78;;;8.04;100.00
3796;BME280;1913;50.660;7.834;2023-04-21T06:22:52;96874.78;;;8.13;100.00
3796;BME280;1913;50.660;7.834;2023-04-21T06:25:18;96880.03;;;8.13;100.00
3796;BME280;1913;50.660;7.834;2023-04-21T06:27:44;96872.22;;;8.20;100.00
3796;BME280;1913;50.660;7.834;2023-04-21T06:30:10;96870.69;;;8.38;100.00
3796;BME280;1913;50.660;7.834;2023-04-21T06:32:36;96880.41;;;8.45;100.00
3796;BME280;1913;50.660;7.834;2023-04-21T06:35:01;96879.59;;;8.44;100.00
3796;BME280;1913;50.660;7.834;2023-04-21T06:37:27;96882.41;;;8.49;100.00
3796;BME280;1913;50.660;7.834;2023-04-21T06:39:52;96892.59;;;8.79;100.00
3796;BME280;1913;50.660;7.834;2023-04-21T06:42:17;96888.00;;;9.07;100.00
3796;BME280;1913;50.660;7.834;2023-04-21T06:44:43;96888.19;;;9.06;100.00
3796;BME280;1913;50.660;7.834;2023-04-21T06:47:08;96883.19;;;9.11;100.00
3796;BME280;1913;50.660;7.834;2023-04-21T06:49:34;96879.56;;;9.25;100.00
3796;BME280;1913;50.660;7.834;2023-04-21T06:52:01;96876.72;;;-145.51;100.00
3796;BME280;1913;50.660;7.834;2023-04-21T06:54:27;79675.88;;;-145.51;100.00
3796;BME280;1913;50.660;7.834;2023-04-21T06:56:52;61283.88;;;-145.51;100.00
3796;BME280;1913;50.660;7.834;2023-04-21T06:59:17;96888.44;;;9.64;100.00
3796;BME280;1913;50.660;7.834;2023-04-21T07:01:43;96888.81;;;9.68;100.00
3796;BME280;1913;50.660;7.834;2023-04-21T07:04:08;96882.72;;;9.80;100.00
3796;BME280;1913;50.660;7.834;2023-04-21T07:06:34;96880.06;;;10.00;100.00
3796;BME280;1913;50.660;7.834;2023-04-21T07:08:59;96881.19;;;10.24;100.00
3796;BME280;1913;50.660;7.834;2023-04-21T07:11:25;96887.47;;;10.37;100.00
3796;BME280;1913;50.660;7.834;2023-04-21T07:13:53;96883.78;;;10.44;100.00
3796;BME280;1913;50.660;7.834;2023-04-21T07:16:18;96877.28;;;10.53;100.00
3796;BME280;1913;50.660;7.834;2023-04-21T07:18:44;96877.66;;;10.64;100.00
3796;BME280;1913;50.660;7.834;2023-04-21T07:21:09;96873.63;;;10.61;100.00
3796;BME280;1913;50.660;7.834;2023-04-21T07:23:34;96885.94;;;10.61;100.00
3796;BME280;1913;50.660;7.834;2023-04-21T07:26:00;96881.09;;;10.64;100.00
3796;BME280;1913;50.660;7.834;2023-04-21T07:28:25;96879.06;;;10.60;100.00
3796;BME280;1913;50.660;7.834;2023-04-21T07:30:51;96884.88;;;11.07;100.00
3796;BME280;1913;50.660;7.834;2023-04-21T07:33:16;96888.50;;;11.06;100.00
3796;BME280;1913;50.660;7.834;2023-04-21T07:35:42;96879.41;;;11.08;100.00
3796;BME280;1913;50.660;7.834;2023-04-21T07:38:07;96883.03;;;11.39;100.00
3796;BME280;1913;50.660;7.834;2023-04-21T07:40:33;96881.16;;;11.21;100.00
3796;BME280;1913;50.660;7.834;2023-04-21T07:42:58;96885.97;;;11.49;100.00
3796;BME280;1913;50.660;7.834;2023-04-21T07:45:24;96884.44;;;11.35;100.00
3796;BME280;1913;50.660;7.834;2023-04-21T07:47:50;96884.00;;;11.13;100.00
3796;BME280;1913;50.660;7.834;2023-04-21T07:50:16;96882.28;;;11.32;100.00
3796;BME280;1913;50.660;7.834;2023-04-21T07:52:41;96886.13;;;11.29;100.00
3796;BME280;1913;50.660;7.834;2023-04-21T07:55:07;96880.81;;;11.11;100.00
3796;BME280;1913;50.660;7.834;2023-04-21T07:57:32;96886.75;;;10.99;100.00
3796;BME280;1913;50.660;7.834;2023-04-21T08:00:03;96883.16;;;10.87;100.00
3796;BME280;1913;50.660;7.834;2023-04-21T08:02:29;96893.00;;;10.98;100.00
3796;BME280;1913;50.660;7.834;2023-04-21T08:04:54;96895.16;;;10.76;100.00
3796;BME280;1913;50.660;7.834;2023-04-21T08:07:20;96894.53;;;10.81;100.00
3796;BME280;1913;50.660;7.834;2023-04-21T08:09:45;96889.94;;;10.70;100.00
3796;BME280;1913;50.660;7.834;2023-04-21T08:12:11;96893.88;;;10.54;100.00
3796;BME280;1913;50.660;7.834;2023-04-21T08:14:36;96888.59;;;10.61;100.00
3796;BME280;1913;50.660;7.834;2023-04-21T08:17:02;96891.50;;;10.77;100.00
3796;BME280;1913;50.660;7.834;2023-04-21T08:19:28;96881.44;;;10.74;100.00
3796;BME280;1913;50.660;7.834;2023-04-21T08:21:54;96878.56;;;10.83;100.00
3796;BME280;1913;50.660;7.834;2023-04-21T08:24:19;96872.00;;;10.92;100.00
3796;BME280;1913;50.660;7.834;2023-04-21T08:26:45;96879.75;;;10.87;100.00
3796;BME280;1913;50.660;7.834;2023-04-21T08:29:10;96892.97;;;11.05;100.00
3796;BME280;1913;50.660;7.834;2023-04-21T08:31:37;96884.63;;;11.15;100.00
3796;BME280;1913;50.660;7.834;2023-04-21T08:34:03;96883.56;;;11.22;100.00
3796;BME280;1913;50.660;7.834;2023-04-21T08:36:29;96885.44;;;11.40;100.00
3796;BME280;1913;50.660;7.834;2023-04-21T08:38:56;96883.88;;;11.58;100.00
3796;BME280;1913;50.660;7.834;2023-04-21T08:41:21;96891.16;;;11.56;100.00
3796;BME280;1913;50.660;7.834;2023-04-21T08:43:47;96886.84;;;11.68;100.00
3796;BME280;1913;50.660;7.834;2023-04-21T08:46:13;96895.00;;;11.60;100.00
3796;BME280;1913;50.660;7.834;2023-04-21T08:48:39;96891.25;;;11.74;100.00
3796;BME280;1913;50.660;7.834;2023-04-21T08:51:10;96896.88;;;11.53;100.00
3796;BME280;1913;50.660;7.834;2023-04-21T08:53:36;96901.31;;;11.27;100.00
3796;BME280;1913;50.660;7.834;2023-04-21T08:56:02;96900.97;;;11.17;100.00
3796;BME280;1913;50.660;7.834;2023-04-21T08:58:29;96891.84;;;10.88;100.00
3796;BME280;1913;50.660;7.834;2023-04-21T09:00:56;96893.91;;;10.86;100.00
3796;BME280;1913;50.660;7.834;2023-04-21T09:03:24;96887.75;;;10.98;100.00
3796;BME280;1913;50.660;7.834;2023-04-21T09:08:22;96890.38;;;11.30;100.00
3796;BME280;1913;50.660;7.834;2023-04-21T09:10:50;96889.41;;;11.49;100.00
3796;BME280;1913;50.660;7.834;2023-04-21T09:13:17;96883.22;;;11.62;100.00
3796;BME280;1913;50.660;7.834;2023-04-21T09:15:48;96900.69;;;11.82;100.00
3796;BME280;1913;50.660;7.834;2023-04-21T09:18:22;96904.13;;;11.82;100.00
3796;BME280;1913;50.660;7.834;2023-04-21T09:20:53;96894.53;;;12.31;100.00
3796;BME280;1913;50.660;7.834;2023-04-21T09:23:28;96899.41;;;13.36;100.00
3796;BME280;1913;50.660;7.834;2023-04-21T09:25:54;96896.03;;;13.95;100.00
3796;BME280;1913;50.660;7.834;2023-04-21T09:28:19;96906.38;;;13.84;100.00
3796;BME280;1913;50.660;7.834;2023-04-21T09:30:45;96914.50;;;14.06;100.00
3796;BME280;1913;50.660;7.834;2023-04-21T09:33:15;96891.78;;;13.94;100.00
3796;BME280;1913;50.660;7.834;2023-04-21T09:35:42;96882.22;;;14.04;100.00
3796;BME280;1913;50.660;7.834;2023-04-21T09:38:11;96882.50;;;13.91;100.00
3796;BME280;1913;50.660;7.834;2023-04-21T09:40:37;96883.03;;;14.05;100.00
3796;BME280;1913;50.660;7.834;2023-04-21T09:43:03;96870.38;;;14.30;100.00
3796;BME280;1913;50.660;7.834;2023-04-21T09:45:29;96885.22;;;13.96;100.00
3796;BME280;1913;50.660;7.834;2023-04-21T09:47:58;96885.69;;;13.58;100.00
3796;BME280;1913;50.660;7.834;2023-04-21T09:50:26;96888.66;;;13.50;100.00
3796;BME280;1913;50.660;7.834;2023-04-21T09:52:53;96889.25;;;13.75;100.00
3796;BME280;1913;50.660;7.834;2023-04-21T09:55:23;96900.16;;;13.67;100.00
3796;BME280;1913;50.660;7.834;2023-04-21T09:57:51;96886.28;;;13.60;100.00
3796;BME280;1913;50.660;7.834;2023-04-21T10:00:20;96879.59;;;13.46;100.00
3796;BME280;1913;50.660;7.834;2023-04-21T10:02:49;96885.13;;;13.56;100.00
3796;BME280;1913;50.660;7.834;2023-04-21T10:05:16;96886.38;;;13.65;100.00
3796;BME280;1913;50.660;7.834;2023-04-21T10:07:43;96879.59;;;14.04;100.00
3796;BME280;1913;50.660;7.834;2023-04-21T10:10:20;96870.25;;;14.77;100.00
3796;BME280;1913;50.660;7.834;2023-04-21T10:12:48;96872.25;;;15.49;100.00
3796;BME280;1913;50.660;7.834;2023-04-21T10:15:37;96870.75;;;15.87;100.00
3796;BME280;1913;50.660;7.834;2023-04-21T10:18:22;96874.84;;;15.44;100.00
3796;BME280;1913;50.660;7.834;2023-04-21T10:23:45;96868.38;;;15.40;100.00
3796;BME280;1913;50.660;7.834;2023-04-21T10:26:21;96866.81;;;15.73;100.00
3796;BME280;1913;50.660;7.834;2023-04-21T10:37:17;96867.81;;;17.90;93.05
3796;BME280;1913;50.660;7.834;2023-04-21T10:39:28;96865.28;;;18.83;74.55
3796;BME280;1913;50.660;7.834;2023-04-21T10:41:55;96861.09;;;19.18;69.07
3796;BME280;1913;50.660;7.834;2023-04-21T10:44:22;96849.59;;;18.92;70.44
3796;BME280;1913;50.660;7.834;2023-04-21T10:46:50;96843.66;;;18.02;88.17
3796;BME280;1913;50.660;7.834;2023-04-21T10:49:23;96838.47;;;18.22;92.23
3796;BME280;1913;50.660;7.834;2023-04-21T10:57:13;96851.91;;;17.26;88.44
3796;BME280;1913;50.660;7.834;2023-04-21T10:59:39;96852.31;;;16.63;94.81
3796;BME280;1913;50.660;7.834;2023-04-21T11:02:06;96848.00;;;15.91;100.00
3796;BME280;1913;50.660;7.834;2023-04-21T11:04:32;96834.88;;;15.46;100.00
3796;BME280;1913;50.660;7.834;2023-04-21T11:09:30;96840.34;;;14.36;100.00
3796;BME280;1913;50.660;7.834;2023-04-21T11:12:04;96830.91;;;14.81;100.00
3796;BME280;1913;50.660;7.834;2023-04-21T11:14:32;96834.53;;;15.25;100.00
3796;BME280;1913;50.660;7.834;2023-04-21T11:17:00;96837.19;;;15.42;100.00
3796;BME280;1913;50.660;7.834;2023-04-21T11:19:26;96846.25;;;15.29;100.00
3796;BME280;1913;50.660;7.834;2023-04-21T11:21:53;96827.06;;;15.39;100.00
3796;BME280;1913;50.660;7.834;2023-04-21T11:24:20;96826.66;;;15.64;100.00
3796;BME280;1913;50.660;7.834;2023-04-21T11:26:45;96829.81;;;15.27;100.00
3796;BME280;1913;50.660;7.834;2023-04-21T11:29:11;96822.25;;;15.36;100.00
3796;BME280;1913;50.660;7.834;2023-04-21T11:31:38;96826.91;;;14.95;100.00
3796;BME280;1913;50.660;7.834;2023-04-21T11:34:05;96814.47;;;15.29;100.00
3796;BME280;1913;50.660;7.834;2023-04-21T11:36:36;96815.47;;;15.23;100.00
3796;BME280;1913;50.660;7.834;2023-04-21T11:39:05;96810.91;;;14.45;100.00
3796;BME280;1913;50.660;7.834;2023-04-21T11:41:41;96816.25;;;14.21;100.00
3796;BME280;1913;50.660;7.834;2023-04-21T11:44:07;96823.56;;;13.79;100.00
3796;BME280;1913;50.660;7.834;2023-04-21T11:46:33;96811.38;;;13.89;100.00
3796;BME280;1913;50.660;7.834;2023-04-21T11:49:10;96813.00;;;13.79;100.00
3796;BME280;1913;50.660;7.834;2023-04-21T11:54:01;96802.56;;;14.65;100.00
3796;BME280;1913;50.660;7.834;2023-04-21T11:56:28;96805.59;;;14.56;100.00
3796;BME280;1913;50.660;7.834;2023-04-21T11:58:54;96802.66;;;14.29;100.00
3796;BME280;1913;50.660;7.834;2023-04-21T12:01:21;96804.09;;;14.20;100.00
3796;BME280;1913;50.660;7.834;2023-04-21T12:03:55;96792.13;;;14.58;100.00
3796;BME280;1913;50.660;7.834;2023-04-21T12:06:25;96780.19;;;14.55;100.00
3796;BME280;1913;50.660;7.834;2023-04-21T12:08:55;96796.81;;;14.68;100.00
3796;BME280;1913;50.660;7.834;2023-04-21T12:11:23;96785.81;;;14.76;100.00
3796;BME280;1913;50.660;7.834;2023-04-21T12:13:49;96781.44;;;15.15;100.00
3796;BME280;1913;50.660;7.834;2023-04-21T12:16:14;96792.72;;;15.78;100.00
3796;BME280;1913;50.660;7.834;2023-04-21T12:18:41;96787.84;;;15.70;100.00
3796;BME280;1913;50.660;7.834;2023-04-21T12:21:07;96790.38;;;16.03;100.00
3796;BME280;1913;50.660;7.834;2023-04-21T12:23:32;96796.25;;;15.84;100.00
3796;BME280;1913;50.660;7.834;2023-04-21T12:25:57;96792.28;;;15.86;100.00
3796;BME280;1913;50.660;7.834;2023-04-21T12:28:23;96796.81;;;16.30;100.00
3796;BME280;1913;50.660;7.834;2023-04-21T12:30:48;96776.59;;;17.05;100.00
3796;BME280;1913;50.660;7.834;2023-04-21T12:33:14;96788.63;;;17.97;98.25
3796;BME280;1913;50.660;7.834;2023-04-21T12:35:39;96774.31;;;17.61;96.21
3796;BME280;1913;50.660;7.834;2023-04-21T12:38:05;96778.09;;;17.70;94.71
3796;BME280;1913;50.660;7.834;2023-04-21T12:40:31;96772.63;;;17.44;93.47
3796;BME280;1913;50.660;7.834;2023-04-21T12:42:56;96766.41;;;16.96;98.59
3796;BME280;1913;50.660;7.834;2023-04-21T12:45:21;96774.59;;;17.22;94.69
3796;BME280;1913;50.660;7.834;2023-04-21T12:47:47;96767.63;;;17.53;95.59
3796;BME280;1913;50.660;7.834;2023-04-21T12:50:13;96771.53;;;17.83;86.92
3796;BME280;1913;50.660;7.834;2023-04-21T12:52:38;96781.75;;;17.59;85.54
3796;BME280;1913;50.660;7.834;2023-04-21T12:55:04;96761.50;;;16.78;93.62
3796;BME280;1913;50.660;7.834;2023-04-21T12:57:30;96763.06;;;16.74;99.71
3796;BME280;1913;50.660;7.834;2023-04-21T12:59:56;96759.69;;;17.16;93.34
3796;BME280;1913;50.660;7.834;2023-04-21T13:02:21;96756.53;;;17.19;89.28
3796;BME280;1913;50.660;7.834;2023-04-21T13:04:47;96757.09;;;17.68;90.74
3796;BME280;1913;50.660;7.834;2023-04-21T13:07:12;96754.97;;;17.70;95.08
3796;BME280;1913;50.660;7.834;2023-04-21T13:09:40;96770.38;;;17.68;87.47
3796;BME280;1913;50.660;7.834;2023-04-21T13:12:05;96753.25;;;17.49;87.87
3796;BME280;1913;50.660;7.834;2023-04-21T13:14:31;96747.44;;;17.57;82.41
3796;BME280;1913;50.660;7.834;2023-04-21T13:16:57;96742.03;;;17.79;86.46
3796;BME280;1913;50.660;7.834;2023-04-21T13:19:23;96737.53;;;17.85;86.43
3796;BME280;1913;50.660;7.834;2023-04-21T13:21:48;96727.44;;;17.92;90.86
3796;BME280;1913;50.660;7.834;2023-04-21T13:24:14;96729.97;;;17.71;85.70
3796;BME280;1913;50.660;7.834;2023-04-21T13:26:39;96753.88;;;17.61;86.17
3796;BME280;1913;50.660;7.834;2023-04-21T13:29:05;96728.56;;;16.74;92.60
3796;BME280;1913;50.660;7.834;2023-04-21T13:31:30;96725.16;;;16.51;100.00
3796;BME280;1913;50.660;7.834;2023-04-21T13:33:57;96718.81;;;16.58;99.26
3796;BME280;1913;50.660;7.834;2023-04-21T13:36:22;96709.47;;;17.14;100.00